Time;durP1;ratioP1;P1;durP2;ratioP2;P2;SDS_P1;SDS_P2;PMS_P1;PMS_P2;Temp;Humidity;BMP_temperature;BMP_pressure;BME280_temperature;BME280_humidity;BME280_pressure;Samples;Min_cycle;Max_cycle;Signal;HPM_P1;HPM_P2
2022/02/15 00:02:25;;;;;;;0.80;0.70;;;21.80;52.50;;;;;;6203729;23;20382;-85
2022/02/15 00:04:52;;;;;;;1.40;0.80;;;21.80;52.50;;;;;;6175825;23;20382;-85
2022/02/15 00:07:25;;;;;;;0.90;0.60;;;21.80;52.50;;;;;;6174771;23;20489;-85
2022/02/15 00:09:58;;;;;;;0.80;0.60;;;21.80;52.60;;;;;;6173926;23;20425;-84
2022/02/15 00:12:31;;;;;;;1.10;0.70;;;21.90;52.70;;;;;;6175690;23;20376;-84
2022/02/15 00:15:00;;;;;;;1.03;0.70;;;21.80;52.50;;;;;;6199394;23;20375;-84
2022/02/15 00:35:30;;;;;;;0.90;0.60;;;21.80;52.70;;;;;;5914544;24;20360;-83
2022/02/15 00:37:57;;;;;;;1.00;0.70;;;21.70;52.70;;;;;;5913384;24;20430;-85
2022/02/15 00:40:23;;;;;;;0.90;0.70;;;21.70;52.70;;;;;;5889482;24;20384;-85
2022/02/15 00:42:50;;;;;;;0.80;0.60;;;21.80;52.70;;;;;;5912952;24;20384;-85
2022/02/15 00:45:17;;;;;;;0.80;0.60;;;21.80;52.70;;;;;;5912564;24;20388;-85
2022/02/15 00:47:46;;;;;;;1.00;0.70;;;21.80;52.70;;;;;;5891500;24;20483;-85
2022/02/15 00:50:12;;;;;;;0.90;0.60;;;21.80;52.70;;;;;;5915062;24;20373;-85
2022/02/15 00:52:38;;;;;;;1.00;0.70;;;21.80;52.60;;;;;;5892230;24;20376;-85
2022/02/15 00:55:08;;;;;;;1.10;0.67;;;21.80;52.60;;;;;;5914773;24;20536;-85
2022/02/15 00:57:36;;;;;;;1.10;0.70;;;21.80;52.60;;;;;;5938266;23;20381;-85
2022/02/15 01:00:03;;;;;;;1.10;0.70;;;21.80;52.60;;;;;;6063982;23;20379;-85
2022/02/15 01:02:30;;;;;;;0.80;0.60;;;21.80;52.60;;;;;;6176292;23;20451;-85
2022/02/15 01:04:56;;;;;;;0.97;0.70;;;21.80;52.60;;;;;;6176297;23;20389;-86
2022/02/15 01:07:23;;;;;;;0.90;0.70;;;21.80;52.60;;;;;;6176235;23;20418;-86
2022/02/15 01:09:52;;;;;;;0.80;0.60;;;21.80;52.60;;;;;;6176538;23;20377;-85
2022/02/15 01:12:19;;;;;;;0.80;0.63;;;21.80;52.60;;;;;;6176662;23;20375;-85
2022/02/15 01:14:48;;;;;;;0.80;0.50;;;21.80;52.60;;;;;;6203222;23;20402;-85
2022/02/15 01:17:15;;;;;;;1.03;0.63;;;21.80;52.60;;;;;;6203381;23;20367;-85
2022/02/15 01:19:41;;;;;;;1.10;0.80;;;21.80;52.60;;;;;;6203105;23;20382;-85
2022/02/15 01:22:07;;;;;;;0.73;0.60;;;21.80;52.60;;;;;;6203593;23;20371;-85
2022/02/15 01:24:38;;;;;;;0.90;0.60;;;21.80;52.60;;;;;;6203072;23;20367;-85
2022/02/15 01:27:05;;;;;;;1.00;0.70;;;21.80;52.60;;;;;;6176809;23;20959;-85
2022/02/15 01:29:31;;;;;;;0.90;0.70;;;21.80;52.60;;;;;;6175887;23;20817;-85
2022/02/15 01:32:16;;;;;;;0.90;0.60;;;21.80;52.50;;;;;;6177010;23;20382;-86
2022/02/15 01:34:42;;;;;;;1.17;0.80;;;21.80;52.60;;;;;;6177239;23;20370;-86
2022/02/15 01:37:11;;;;;;;0.90;0.60;;;21.80;52.60;;;;;;6176281;23;20473;-86
2022/02/15 01:39:38;;;;;;;0.80;0.60;;;21.80;52.60;;;;;;6175837;23;20491;-85
2022/02/15 01:42:05;;;;;;;1.03;0.60;;;21.80;52.60;;;;;;6174936;23;20379;-85
2022/02/15 01:44:32;;;;;;;0.80;0.60;;;21.80;52.60;;;;;;6176256;23;20451;-85
2022/02/15 01:46:59;;;;;;;0.83;0.60;;;21.80;52.50;;;;;;6202632;23;20415;-86
2022/02/15 01:49:27;;;;;;;0.80;0.63;;;21.80;52.50;;;;;;6202763;23;20363;-85
2022/02/15 01:51:53;;;;;;;0.80;0.70;;;21.80;52.50;;;;;;6176372;23;20458;-85
2022/02/15 01:54:22;;;;;;;1.00;0.63;;;21.80;52.50;;;;;;6176289;23;20387;-85
2022/02/15 01:56:49;;;;;;;0.80;0.60;;;21.80;52.50;;;;;;6176217;23;20375;-85
2022/02/15 02:02:40;;;;;;;0.80;0.60;;;21.80;52.50;;;;;;6203234;23;20339;-85
2022/02/15 02:07:56;;;;;;;0.90;0.60;;;21.80;52.60;;;;;;6203142;23;20868;-85
2022/02/15 02:10:22;;;;;;;0.80;0.60;;;21.80;52.60;;;;;;6175196;23;20470;-86
2022/02/15 02:12:55;;;;;;;0.90;0.60;;;21.70;52.60;;;;;;6175164;23;20379;-86
2022/02/15 02:15:25;;;;;;;0.80;0.60;;;21.80;52.60;;;;;;6175876;23;20386;-84
2022/02/15 02:17:53;;;;;;;0.80;0.60;;;21.80;52.60;;;;;;6150741;23;20383;-84
2022/02/15 02:20:20;;;;;;;0.80;0.60;;;21.70;52.50;;;;;;6175704;23;20379;-84
2022/02/15 02:22:47;;;;;;;0.70;0.50;;;21.80;52.60;;;;;;6175090;23;20383;-84
2022/02/15 02:25:16;;;;;;;0.87;0.60;;;21.80;52.60;;;;;;6202070;23;20371;-84
2022/02/15 02:27:42;;;;;;;0.80;0.60;;;21.80;52.60;;;;;;6175394;23;20422;-84
2022/02/15 02:30:15;;;;;;;0.93;0.70;;;21.80;52.60;;;;;;6175758;23;20399;-84
2022/02/15 02:32:41;;;;;;;1.20;0.73;;;21.80;52.50;;;;;;6200430;23;20371;-84
2022/02/15 02:35:09;;;;;;;0.80;0.63;;;21.80;52.50;;;;;;6175470;23;20371;-84
2022/02/15 02:37:36;;;;;;;1.37;0.87;;;21.70;52.50;;;;;;6174550;23;20398;-83
2022/02/15 02:40:08;;;;;;;0.90;0.60;;;21.80;52.60;;;;;;6175316;23;20386;-83
2022/02/15 02:42:38;;;;;;;0.80;0.60;;;21.80;52.60;;;;;;6175461;23;20853;-82
2022/02/15 02:45:12;;;;;;;0.87;0.63;;;21.80;52.60;;;;;;6202526;23;20367;-83
2022/02/15 02:47:44;;;;;;;0.83;0.60;;;21.80;52.50;;;;;;6175657;23;20439;-84
2022/02/15 02:50:14;;;;;;;1.10;0.60;;;21.80;52.50;;;;;;6175769;23;20383;-84
2022/02/15 02:52:41;;;;;;;1.20;0.60;;;21.80;52.50;;;;;;6175886;23;20379;-83
2022/02/15 02:55:08;;;;;;;0.80;0.60;;;21.80;52.50;;;;;;6202036;23;20371;-83
2022/02/15 02:57:35;;;;;;;0.80;0.60;;;21.80;52.50;;;;;;6200957;23;20424;-84
2022/02/15 03:00:05;;;;;;;0.80;0.60;;;21.80;52.50;;;;;;6176815;23;20455;-84
2022/02/15 03:02:44;;;;;;;0.80;0.50;;;21.80;52.50;;;;;;6152904;23;20406;-84
2022/02/15 03:05:15;;;;;;;0.90;0.60;;;21.80;53.10;;;;;;6164801;23;20394;-84
2022/02/15 03:07:45;;;;;;;0.90;0.70;;;21.80;52.50;;;;;;6179834;23;20443;-84
2022/02/15 03:10:11;;;;;;;1.00;0.60;;;21.80;52.50;;;;;;6179266;23;20454;-84
2022/02/15 03:12:38;;;;;;;0.80;0.60;;;21.80;52.50;;;;;;6177551;23;20363;-84
2022/02/15 03:15:10;;;;;;;1.00;0.70;;;21.80;52.50;;;;;;6176831;23;20405;-84
2022/02/15 03:17:39;;;;;;;1.10;0.60;;;21.80;52.50;;;;;;6174932;23;20765;-84
2022/02/15 03:20:12;;;;;;;0.80;0.60;;;21.80;52.50;;;;;;6175546;23;20429;-84
2022/02/15 03:22:38;;;;;;;1.00;0.60;;;21.80;52.50;;;;;;6174631;23;20375;-84
2022/02/15 03:25:07;;;;;;;1.00;0.60;;;21.80;52.50;;;;;;6174216;23;20411;-84
2022/02/15 03:27:34;;;;;;;0.80;0.63;;;21.80;52.50;;;;;;6200346;23;20880;-84
2022/02/15 03:30:03;;;;;;;0.80;0.60;;;21.80;52.50;;;;;;6174804;23;20382;-83
2022/02/15 03:32:30;;;;;;;0.80;0.60;;;21.80;52.50;;;;;;6176519;23;20521;-83
2022/02/15 03:34:56;;;;;;;0.90;0.70;;;21.70;52.40;;;;;;6173907;23;20379;-83
2022/02/15 03:37:25;;;;;;;0.93;0.60;;;21.70;52.40;;;;;;6174421;23;20421;-83
2022/02/15 03:40:07;;;;;;;0.80;0.63;;;21.70;52.50;;;;;;6174292;23;20433;-83
2022/02/15 03:45:28;;;;;;;0.97;0.67;;;21.70;52.50;;;;;;6200671;23;20358;-83
2022/02/15 03:47:57;;;;;;;0.90;0.67;;;21.70;52.50;;;;;;6200061;23;20418;-83
2022/02/15 03:50:23;;;;;;;0.90;0.70;;;21.80;52.60;;;;;;6200572;23;20393;-83
2022/02/15 03:52:53;;;;;;;0.90;0.60;;;21.70;52.50;;;;;;6178339;23;20384;-83
2022/02/15 03:55:31;;;;;;;0.80;0.60;;;21.70;52.50;;;;;;6178524;23;20379;-83
2022/02/15 03:58:05;;;;;;;1.10;0.70;;;21.70;52.50;;;;;;6179723;23;20387;-83
2022/02/15 04:00:34;;;;;;;0.83;0.60;;;21.70;52.50;;;;;;6178107;23;20371;-83
2022/02/15 04:03:07;;;;;;;0.80;0.60;;;21.70;52.40;;;;;;6177197;23;20433;-83
2022/02/15 04:05:34;;;;;;;0.97;0.70;;;21.70;52.50;;;;;;6153902;23;20422;-83
2022/02/15 04:08:04;;;;;;;0.80;0.60;;;21.70;52.50;;;;;;6177914;23;20430;-83
2022/02/15 04:10:48;;;;;;;0.90;0.60;;;21.70;52.50;;;;;;6200962;23;20430;-83
2022/02/15 04:13:15;;;;;;;0.80;0.60;;;21.70;52.50;;;;;;6177456;23;20405;-83
2022/02/15 04:15:42;;;;;;;0.83;0.60;;;21.70;52.50;;;;;;6177237;23;20375;-83
2022/02/15 04:18:09;;;;;;;1.00;0.70;;;21.80;52.50;;;;;;6177559;23;20383;-83
2022/02/15 04:20:41;;;;;;;0.70;0.50;;;21.70;52.40;;;;;;6176726;23;20382;-83
2022/02/15 04:23:07;;;;;;;0.80;0.60;;;21.70;52.40;;;;;;6179540;23;20363;-83
2022/02/15 04:25:34;;;;;;;0.80;0.60;;;21.70;52.40;;;;;;6203488;23;20387;-83
2022/02/15 04:28:04;;;;;;;0.80;0.60;;;21.70;52.40;;;;;;6175999;23;20453;-83
2022/02/15 04:30:35;;;;;;;1.00;0.70;;;21.70;52.40;;;;;;6203462;23;20374;-83
2022/02/15 04:33:02;;;;;;;0.80;0.60;;;21.70;52.40;;;;;;6176231;23;20371;-84
2022/02/15 04:35:29;;;;;;;0.90;0.60;;;21.80;52.50;;;;;;6202790;23;20426;-84
2022/02/15 04:37:56;;;;;;;1.00;0.70;;;21.70;52.40;;;;;;6176508;23;20400;-84
2022/02/15 04:40:23;;;;;;;0.80;0.60;;;21.70;52.40;;;;;;6174607;23;20453;-84
2022/02/15 04:43:06;;;;;;;0.90;0.70;;;21.70;52.40;;;;;;6174796;23;20411;-84
2022/02/15 04:45:38;;;;;;;0.90;0.70;;;21.70;52.40;;;;;;6173267;23;20439;-84
2022/02/15 04:48:04;;;;;;;0.80;0.60;;;21.70;52.40;;;;;;6200513;23;20444;-84
2022/02/15 04:50:34;;;;;;;0.80;0.60;;;21.70;52.40;;;;;;6174409;23;20441;-85
2022/02/15 04:53:01;;;;;;;0.80;0.60;;;21.70;52.40;;;;;;6201077;23;20382;-85
2022/02/15 04:55:30;;;;;;;0.90;0.60;;;21.70;52.40;;;;;;6174927;23;20753;-84
2022/02/15 04:57:59;;;;;;;0.80;0.60;;;21.70;52.40;;;;;;6174681;23;20379;-84
2022/02/15 05:00:27;;;;;;;0.90;0.60;;;21.70;52.40;;;;;;6175203;23;20755;-84
2022/02/15 05:02:56;;;;;;;0.80;0.60;;;21.70;52.40;;;;;;6200863;23;20387;-84
2022/02/15 05:05:30;;;;;;;0.80;0.60;;;21.70;52.40;;;;;;6175057;23;20384;-84
2022/02/15 05:07:59;;;;;;;0.80;0.60;;;21.70;52.40;;;;;;6174982;23;20433;-84
2022/02/15 05:10:26;;;;;;;0.90;0.70;;;21.70;52.40;;;;;;6174864;23;20380;-84
2022/02/15 05:12:52;;;;;;;0.80;0.50;;;21.70;52.40;;;;;;6174551;23;20374;-84
2022/02/15 05:15:19;;;;;;;0.80;0.60;;;21.70;52.40;;;;;;6176576;23;20375;-84
2022/02/15 05:17:47;;;;;;;0.80;0.63;;;21.70;52.40;;;;;;6176462;23;20379;-84
2022/02/15 05:20:21;;;;;;;0.80;0.60;;;21.70;52.40;;;;;;6174925;23;20386;-85
2022/02/15 05:22:51;;;;;;;0.77;0.60;;;21.70;52.40;;;;;;6173599;23;20382;-85
2022/02/15 05:25:17;;;;;;;0.90;0.60;;;21.70;52.40;;;;;;6173154;23;20406;-85
2022/02/15 05:27:45;;;;;;;0.80;0.60;;;21.60;52.40;;;;;;6199888;23;20411;-85
2022/02/15 05:30:18;;;;;;;0.90;0.60;;;21.60;52.40;;;;;;6175081;23;20379;-84
2022/02/15 05:32:47;;;;;;;0.90;0.70;;;21.60;52.40;;;;;;6176640;23;20426;-85
2022/02/15 05:35:13;;;;;;;0.70;0.50;;;21.60;52.40;;;;;;6176340;23;20406;-84
2022/02/15 05:37:39;;;;;;;0.80;0.60;;;21.70;52.50;;;;;;6177534;23;20405;-84
2022/02/15 05:40:07;;;;;;;0.90;0.80;;;21.70;52.40;;;;;;6176908;23;20374;-84
2022/02/15 05:42:49;;;;;;;0.80;0.60;;;21.70;52.40;;;;;;6177288;23;20379;-84
2022/02/15 05:45:27;;;;;;;0.90;0.60;;;21.60;52.40;;;;;;6178650;23;20413;-84
2022/02/15 05:48:50;;;;;;;0.80;0.60;;;21.60;52.40;;;;;;6178917;23;20418;-84
2022/02/15 05:51:23;;;;;;;0.80;0.60;;;21.60;52.40;;;;;;6205328;23;20379;-83
2022/02/15 05:53:56;;;;;;;1.03;0.70;;;21.60;52.40;;;;;;6177640;23;20382;-84
2022/02/15 05:56:31;;;;;;;0.80;0.60;;;21.60;52.50;;;;;;6178243;23;20378;-84
2022/02/15 05:58:58;;;;;;;0.80;0.60;;;21.60;53.00;;;;;;6180538;23;20379;-84
2022/02/15 06:01:27;;;;;;;0.80;0.60;;;21.60;52.50;;;;;;6176732;23;20678;-84
2022/02/15 06:07:16;;;;;;;0.80;0.60;;;21.60;52.50;;;;;;6204264;23;20947;-84
2022/02/15 06:09:55;;;;;;;1.20;0.70;;;21.60;52.50;;;;;;6177383;23;20705;-85
2022/02/15 06:12:56;;;;;;;0.80;0.60;;;21.60;52.60;;;;;;6177058;23;20367;-84
2022/02/15 06:15:22;;;;;;;0.87;0.60;;;21.60;52.50;;;;;;6202305;23;20367;-84
2022/02/15 06:20:38;;;;;;;0.87;0.60;;;21.60;52.50;;;;;;6201917;23;20347;-85
2022/02/15 06:23:13;;;;;;;0.80;0.60;;;21.60;52.50;;;;;;6174912;23;20383;-85
2022/02/15 06:25:44;;;;;;;1.20;0.70;;;21.60;52.60;;;;;;6175828;23;20441;-85
2022/02/15 06:28:15;;;;;;;0.80;0.60;;;21.60;52.50;;;;;;6175686;23;20450;-84
2022/02/15 06:30:47;;;;;;;0.90;0.60;;;21.60;52.50;;;;;;6175530;23;20905;-84
2022/02/15 06:33:13;;;;;;;0.80;0.60;;;21.60;52.50;;;;;;6175661;23;20383;-83
2022/02/15 06:35:39;;;;;;;0.90;0.60;;;21.60;52.50;;;;;;6175143;23;20416;-84
2022/02/15 06:38:44;;;;;;;0.80;0.60;;;21.60;52.50;;;;;;6201886;23;20415;-84
2022/02/15 06:41:19;;;;;;;0.80;0.60;;;21.60;52.50;;;;;;6165399;23;20410;-84
2022/02/15 06:43:48;;;;;;;0.90;0.60;;;21.70;52.60;;;;;;6174553;23;20449;-83
2022/02/15 06:46:18;;;;;;;1.07;0.63;;;21.60;52.50;;;;;;6175675;23;20422;-84
2022/02/15 06:51:36;;;;;;;1.00;0.60;;;21.60;52.50;;;;;;6200970;23;20378;-84
2022/02/15 06:54:07;;;;;;;0.90;0.70;;;21.60;52.50;;;;;;6174784;23;20375;-83
2022/02/15 06:56:39;;;;;;;0.80;0.50;;;21.70;52.60;;;;;;6175854;23;20382;-83
2022/02/15 06:59:29;;;;;;;0.83;0.50;;;21.60;52.50;;;;;;6175523;23;20414;-84
2022/02/15 07:02:09;;;;;;;;;;;;;;;;;;;;;
2022/02/15 07:04:46;;;;;;;0.87;0.63;;;21.70;52.50;;;;;;6200997;23;20347;-83
2022/02/15 07:07:15;;;;;;;0.80;0.53;;;21.70;52.60;;;;;;6175057;23;20773;-84
2022/02/15 07:09:47;;;;;;;0.77;0.57;;;21.70;52.60;;;;;;6173412;23;20382;-84
2022/02/15 07:12:14;;;;;;;0.80;0.60;;;21.70;52.60;;;;;;6175458;23;20508;-84
2022/02/15 07:14:50;;;;;;;0.80;0.60;;;21.60;52.50;;;;;;6174239;23;20402;-84
2022/02/15 07:17:31;;;;;;;;;;;;;;;;;;;;;
2022/02/15 07:20:05;;;;;;;0.80;0.60;;;21.70;52.50;;;;;;6201070;23;20821;-84
2022/02/15 07:22:42;;;;;;;0.80;0.60;;;21.70;52.50;;;;;;6173591;23;20371;-83
2022/02/15 07:25:18;;;;;;;0.80;0.60;;;21.70;52.50;;;;;;6200312;23;20382;-84
2022/02/15 07:28:07;;;;;;;0.80;0.70;;;21.70;52.50;;;;;;6174917;23;20418;-84
2022/02/15 07:30:42;;;;;;;0.80;0.60;;;21.70;52.50;;;;;;6164821;23;20394;-84
2022/02/15 07:36:35;;;;;;;;;;;;;;;;;;;;;
2022/02/15 07:39:35;;;;;;;0.80;0.60;;;21.70;52.50;;;;;;6177939;23;20427;-84
2022/02/15 07:42:10;;;;;;;0.80;0.60;;;21.70;52.60;;;;;;6200052;23;20433;-84
2022/02/15 07:45:02;;;;;;;0.70;0.60;;;21.70;52.50;;;;;;6174978;23;20414;-84
2022/02/15 07:54:32;;;;;;;0.80;0.60;;;21.70;52.60;;;;;;6023768;23;20870;-83
2022/02/15 07:57:13;;;;;;;0.80;0.60;;;21.70;52.60;;;;;;6000237;23;20419;-83
2022/02/15 08:02:46;;;;;;;0.87;0.60;;;21.70;52.60;;;;;;6027076;23;20404;-83
2022/02/15 08:09:22;;;;;;;0.80;0.50;;;21.70;52.50;;;;;;5942623;24;20398;-84
2022/02/15 08:12:08;;;;;;;0.80;0.60;;;21.70;52.60;;;;;;5959769;23;20384;-84
2022/02/15 08:15:51;;;;;;;;;;;;;;;;;;;;;
2022/02/15 08:18:32;;;;;;;0.80;0.60;;;21.70;52.50;;;;;;5942800;24;20763;-84
2022/02/15 08:25:01;;;;;;;0.80;0.60;;;21.70;52.60;;;;;;5888342;24;20375;-84
2022/02/15 08:45:22;;;;;;;1.10;0.90;;;21.70;52.60;;;;;;5763754;24;20528;-85
2022/02/15 08:58:54;;;;;;;;;;;;;;;;;;;;;
2022/02/15 09:01:49;;;;;;;0.87;0.60;;;21.80;52.60;;;;;;5749524;24;20416;-86
2022/02/15 09:07:44;;;;;;;0.90;0.60;;;21.90;52.60;;;;;;5775667;24;20520;-85
2022/02/15 09:10:13;;;;;;;0.90;0.60;;;21.90;52.60;;;;;;5795565;24;20384;-85
2022/02/15 09:13:14;;;;;;;;;;;;;;;;;;;;;
2022/02/15 09:16:07;;;;;;;0.80;0.50;;;22.00;52.70;;;;;;5912163;24;20992;-86
2022/02/15 09:22:00;;;;;;;1.10;0.73;;;22.00;52.60;;;;;;5911507;24;20363;-86
2022/02/15 09:24:52;;;;;;;0.90;0.67;;;22.00;52.60;;;;;;5911534;24;20392;-86
2022/02/15 09:30:29;;;;;;;0.80;0.60;;;22.00;52.60;;;;;;6031245;23;20391;-86
2022/02/15 09:33:27;;;;;;;;;;;;;;;;;;;;;
2022/02/15 09:36:14;;;;;;;0.90;0.70;;;22.10;52.60;;;;;;6053280;23;20395;-86
2022/02/15 09:45:19;;;;;;;1.40;0.80;;;22.10;52.60;;;;;;6192848;23;20390;-86
2022/02/15 09:48:07;;;;;;;;;;;;;;;;;;;;;
2022/02/15 09:54:15;;;;;;;1.00;0.70;;;22.10;52.60;;;;;;6111417;23;20378;-86
2022/02/15 09:58:03;;;;;;;1.20;0.70;;;22.20;52.70;;;;;;6174918;23;20541;-86
2022/02/15 10:00:18;;;;;;;1.00;0.70;;;22.20;52.70;;;;;;6195764;23;20390;-86
2022/02/15 10:07:05;;;;;;;;;;;;;;;;;;;;;
2022/02/15 10:14:36;;;;;;;;;;;;;;;;;;;;;
2022/02/15 10:24:55;;;;;;;;;;;;;;;;;;;;;
2022/02/15 10:36:04;;;;;;;;;;;;;;;;;;;;;
2022/02/15 10:49:37;;;;;;;;;;;;;;;;;;;;;
2022/02/15 11:09:32;;;;;;;;;;;;;;;;;;;;;
2022/02/15 11:29:23;;;;;;;2.70;1.40;;;22.20;53.50;;;;;;5860680;24;20454;-85
2022/02/15 11:36:19;;;;;;;;;;;;;;;;;;;;;
2022/02/15 11:39:22;;;;;;;;;;;;;;;;;;;;;
2022/02/15 11:49:28;;;;;;;2.30;1.47;;;22.30;53.40;;;;;;6083066;23;20358;-87
2022/02/15 13:36:22;;;;;;;;;;;;;;;;;;;;;
2022/02/15 14:03:40;;;;;;;6.67;2.50;;;22.10;53.50;;;;;;5863448;24;20378;-86
2022/02/15 14:31:34;;;;;;;2.40;1.60;;;21.90;51.20;;;;;;5856609;24;20516;-86
2022/02/15 14:35:11;;;;;;;;;;;;;;;;;;;;;
2022/02/15 16:21:07;;;;;;;1.47;1.33;;;22.10;52.50;;;;;;5781572;24;20363;-84
2022/02/15 16:34:22;;;;;;;1.80;1.20;;;22.20;52.50;;;;;;5752277;25;20365;-86
2022/02/15 16:43:47;;;;;;;1.97;1.43;;;22.20;52.50;;;;;;5756608;24;20381;-85
2022/02/15 16:52:51;;;;;;;3.47;1.30;;;22.20;52.50;;;;;;5817751;24;20357;-84
2022/02/15 16:55:44;;;;;;;2.07;1.47;;;22.20;52.50;;;;;;5891253;24;20858;-84
2022/02/15 17:05:26;;;;;;;2.20;1.20;;;22.30;52.60;;;;;;5866176;24;20399;-84
2022/02/15 17:08:04;;;;;;;1.53;1.30;;;22.30;52.70;;;;;;5891615;24;20424;-84
2022/02/15 17:10:53;;;;;;;;;;;;;;;;;;;;;
2022/02/15 17:13:27;;;;;;;1.33;1.10;;;22.30;52.70;;;;;;6070331;23;20402;-84
2022/02/15 17:15:57;;;;;;;1.60;1.47;;;22.30;52.70;;;;;;6057642;23;20379;-84
2022/02/15 17:21:47;;;;;;;3.80;2.20;;;22.40;52.70;;;;;;6082521;23;20381;-84
2022/02/15 17:38:10;;;;;;;2.43;2.23;;;22.40;52.80;;;;;;6004847;24;20370;-85
2022/02/15 17:40:51;;;;;;;2.70;1.60;;;22.30;52.70;;;;;;6003581;24;20377;-85
2022/02/15 17:54:17;;;;;;;;;;;;;;;;;;;;;
2022/02/15 17:56:47;;;;;;;1.60;1.40;;;22.40;52.90;;;;;;5972216;24;20386;-84
2022/02/15 17:59:32;;;;;;;1.93;1.57;;;22.40;52.90;;;;;;5950670;24;20379;-84
2022/02/15 18:02:22;;;;;;;2.13;1.50;;;22.40;52.90;;;;;;5948001;24;20374;-84
2022/02/15 18:05:16;;;;;;;3.03;1.30;;;22.40;52.90;;;;;;5969718;24;20427;-84
2022/02/15 18:08:21;;;;;;;1.63;1.40;;;22.40;52.80;;;;;;5965948;24;20470;-84
2022/02/15 18:11:11;;;;;;;1.73;1.33;;;22.40;52.80;;;;;;5959149;24;20408;-84
2022/02/15 18:13:48;;;;;;;1.90;1.37;;;22.40;52.80;;;;;;6018526;23;20431;-84
2022/02/15 18:16:44;;;;;;;1.77;1.57;;;22.50;52.90;;;;;;6004217;23;20381;-84
2022/02/15 18:19:18;;;;;;;2.20;1.30;;;22.40;52.80;;;;;;6058528;23;20487;-84
2022/02/15 18:22:00;;;;;;;1.70;1.30;;;22.50;52.80;;;;;;6082384;23;20395;-84
2022/02/15 18:31:23;;;;;;;3.30;2.20;;;22.50;52.80;;;;;;6168414;23;20375;-84
2022/02/15 18:34:34;;;;;;;1.40;1.10;;;22.50;52.90;;;;;;6176928;23;20434;-84
2022/02/15 18:37:10;;;;;;;1.30;1.20;;;22.50;52.90;;;;;;6203104;23;20379;-84
2022/02/15 18:39:48;;;;;;;1.80;1.50;;;22.50;52.90;;;;;;6177508;23;20379;-84
2022/02/15 18:42:21;;;;;;;2.47;1.47;;;22.50;52.90;;;;;;6154655;23;20818;-84
2022/02/15 18:45:06;;;;;;;2.17;1.53;;;22.50;52.90;;;;;;6177079;23;20380;-84
2022/02/15 18:47:45;;;;;;;2.70;1.53;;;22.50;52.90;;;;;;6177385;23;20469;-84
2022/02/15 18:50:12;;;;;;;1.70;1.23;;;22.50;52.90;;;;;;6179104;23;20390;-84
2022/02/15 18:52:48;;;;;;;1.60;1.10;;;22.50;52.80;;;;;;6178995;23;20382;-84
2022/02/15 18:55:20;;;;;;;1.93;1.50;;;22.50;52.80;;;;;;6179766;23;20379;-84
2022/02/15 18:57:52;;;;;;;1.80;1.40;;;22.50;52.80;;;;;;6179448;23;20383;-84
2022/02/15 19:00:29;;;;;;;2.77;1.30;;;22.50;52.80;;;;;;6180113;23;20406;-84
2022/02/15 19:03:03;;;;;;;1.50;1.23;;;22.50;52.80;;;;;;6206663;23;20438;-84
2022/02/15 19:05:37;;;;;;;1.30;1.10;;;22.60;52.90;;;;;;6181671;23;20382;-85
2022/02/15 19:08:13;;;;;;;2.03;1.50;;;22.60;52.90;;;;;;6206452;23;20454;-84
2022/02/15 19:10:41;;;;;;;1.60;1.30;;;22.60;53.00;;;;;;6180311;23;20370;-84
2022/02/15 19:13:12;;;;;;;1.63;1.47;;;22.60;52.90;;;;;;6180009;23;20363;-84
2022/02/15 19:15:44;;;;;;;1.50;1.20;;;22.50;52.80;;;;;;6179350;23;20394;-84
2022/02/15 19:18:16;;;;;;;1.57;1.23;;;22.60;52.90;;;;;;6179490;23;20386;-84
2022/02/15 19:20:57;;;;;;;1.53;1.07;;;22.60;52.90;;;;;;6180813;23;20471;-83
2022/02/15 19:23:27;;;;;;;2.23;1.57;;;22.60;52.90;;;;;;6182948;23;20410;-83
2022/02/15 19:26:05;;;;;;;;;;;;;;;;;;;;;
2022/02/15 19:28:36;;;;;;;1.97;1.30;;;22.60;52.90;;;;;;6205066;23;20356;-83
2022/02/15 19:31:07;;;;;;;1.60;1.30;;;22.60;53.50;;;;;;6176010;23;20386;-83
2022/02/15 19:33:40;;;;;;;2.10;1.80;;;22.60;52.90;;;;;;6176166;23;20371;-83
2022/02/15 19:36:14;;;;;;;1.70;1.60;;;22.60;52.90;;;;;;6176303;23;20371;-82
2022/02/15 19:38:41;;;;;;;2.00;1.47;;;22.60;52.90;;;;;;6176520;23;20360;-83
2022/02/15 19:41:29;;;;;;;;;;;;;;;;;;;;;
2022/02/15 19:43:59;;;;;;;2.30;1.37;;;22.60;52.90;;;;;;6179199;23;20355;-83
2022/02/15 19:46:32;;;;;;;1.60;1.40;;;22.60;52.90;;;;;;6176224;23;20401;-83
2022/02/15 19:49:25;;;;;;;1.83;1.50;;;22.70;53.00;;;;;;6176180;23;20455;-83
2022/02/15 19:51:51;;;;;;;1.90;1.40;;;22.70;53.00;;;;;;6200661;23;20372;-83
2022/02/15 19:54:35;;;;;;;1.97;1.43;;;22.60;52.90;;;;;;6176144;23;20399;-82
2022/02/15 19:59:53;;;;;;;2.00;1.43;;;22.60;52.90;;;;;;6198994;23;20375;-83
2022/02/15 20:02:32;;;;;;;1.80;1.17;;;22.60;52.90;;;;;;6202584;23;20377;-83
2022/02/15 20:05:11;;;;;;;2.80;1.30;;;22.70;53.00;;;;;;6176036;23;20382;-83
2022/02/15 20:29:03;;;;;;;2.20;1.33;;;22.60;53.00;;;;;;6208707;23;20433;-86
2022/02/15 20:35:41;;;;;;;1.20;1.10;;;22.50;52.90;;;;;;6118328;23;20381;-87
2022/02/15 20:39:02;;;;;;;1.50;1.20;;;22.50;53.00;;;;;;6075496;23;20386;-86
2022/02/15 20:41:51;;;;;;;1.87;1.30;;;22.50;53.00;;;;;;6030066;23;20413;-86
2022/02/15 20:44:26;;;;;;;1.93;1.27;;;22.50;53.00;;;;;;5919478;24;20387;-87
2022/02/15 20:54:38;;;;;;;;;;;;;;;;;;;;;
2022/02/15 21:07:46;;;;;;;1.40;1.30;;;22.50;53.10;;;;;;5837378;24;20425;-86
2022/02/15 21:19:57;;;;;;;;;;;;;;;;;;;;;
2022/02/15 21:22:43;;;;;;;2.53;1.30;;;22.50;53.10;;;;;;6082014;23;20383;-86
2022/02/15 21:26:00;;;;;;;;;;;;;;;;;;;;;
2022/02/15 21:29:02;;;;;;;1.30;1.20;;;22.50;53.10;;;;;;6081879;23;20449;-86
2022/02/15 21:41:54;;;;;;;1.60;1.10;;;22.40;52.90;;;;;;5898573;24;20400;-86
2022/02/15 21:51:58;;;;;;;1.20;1.10;;;22.40;53.00;;;;;;5870366;24;20477;-86
2022/02/15 21:55:05;;;;;;;1.63;1.10;;;22.40;53.00;;;;;;5885847;24;20385;-87
2022/02/15 22:07:35;;;;;;;1.43;1.20;;;22.40;53.00;;;;;;5887716;24;20453;-87
2022/02/15 22:17:02;;;;;;;1.37;1.07;;;22.40;53.00;;;;;;5886831;24;20392;-86
2022/02/15 22:22:58;;;;;;;1.60;1.27;;;22.30;53.00;;;;;;5887571;24;20377;-87
2022/02/15 22:26:14;;;;;;;;;;;;;;;;;;;;;
2022/02/15 22:35:53;;;;;;;1.27;1.07;;;22.30;53.00;;;;;;5915234;24;20393;-87
2022/02/15 22:38:49;;;;;;;1.20;0.90;;;22.30;53.00;;;;;;5892750;24;20427;-86
2022/02/15 22:42:17;;;;;;;;;;;;;;;;;;;;;
2022/02/15 22:44:57;;;;;;;1.37;1.20;;;22.30;53.00;;;;;;5880814;24;20381;-87
2022/02/15 22:51:26;;;;;;;1.30;1.10;;;22.30;53.00;;;;;;5874714;24;20449;-85
2022/02/15 22:54:44;;;;;;;;;;;;;;;;;;;;;
2022/02/15 22:57:28;;;;;;;2.23;1.40;;;22.30;53.00;;;;;;5831952;24;20406;-85
2022/02/15 23:00:51;;;;;;;1.30;1.10;;;22.30;53.00;;;;;;5882172;24;20392;-85
2022/02/15 23:19:50;;;;;;;2.20;1.13;;;22.30;53.10;;;;;;6164008;23;20409;-87
2022/02/15 23:22:53;;;;;;;1.40;1.10;;;22.30;53.10;;;;;;6175376;23;20372;-87
2022/02/15 23:29:03;;;;;;;1.97;1.03;;;22.30;53.00;;;;;;6109137;23;20392;-87
2022/02/15 23:31:41;;;;;;;2.00;1.20;;;22.30;52.90;;;;;;6201664;23;20363;-87
2022/02/15 23:34:22;;;;;;;1.57;1.00;;;22.30;52.90;;;;;;6176280;23;20371;-87
2022/02/15 23:37:01;;;;;;;1.40;1.20;;;22.30;52.90;;;;;;6175815;23;20367;-87
2022/02/15 23:39:51;;;;;;;1.23;1.07;;;22.30;52.90;;;;;;6176979;23;20756;-87
2022/02/15 23:45:38;;;;;;;1.53;1.00;;;22.30;52.90;;;;;;6177944;23;20375;-87
2022/02/15 23:48:09;;;;;;;1.63;1.20;;;22.30;52.90;;;;;;6203231;23;20421;-85
2022/02/15 23:50:58;;;;;;;1.00;0.90;;;22.30;52.90;;;;;;6150766;23;20454;-85
2022/02/15 23:53:43;;;;;;;1.73;1.37;;;22.40;53.00;;;;;;6194406;23;20738;-85
2022/02/15 23:56:28;;;;;;;1.40;1.30;;;22.40;53.00;;;;;;6172362;23;20439;-85
2022/02/15 23:58:56;;;;;;;1.27;0.93;;;22.40;53.00;;;;;;6173786;23;20379;-85
